Time;durP1;ratioP1;P1;durP2;ratioP2;P2;SDS_P1;SDS_P2;PMS_P1;PMS_P2;Temp;Humidity;BMP_temperature;BMP_pressure;BME280_temperature;BME280_humidity;BME280_pressure;Samples;Min_cycle;Max_cycle;Signal;HPM_P1;HPM_P2
2020/12/23 00:01:28;;;;;;;3.10;2.03;;;12.90;99.90;;;;;;5032523;28;20652;-68
2020/12/23 00:03:56;;;;;;;3.67;2.23;;;12.90;99.90;;;;;;5032624;28;20247;-68
2020/12/23 00:06:21;;;;;;;2.20;2.00;;;12.80;99.90;;;;;;5031934;28;20195;-68
2020/12/23 00:08:47;;;;;;;2.00;1.80;;;12.90;99.90;;;;;;5032413;28;20262;-66
2020/12/23 00:11:16;;;;;;;2.50;1.90;;;13.00;99.90;;;;;;5032193;28;20172;-67
2020/12/23 00:13:41;;;;;;;2.23;2.03;;;13.00;99.90;;;;;;5032543;28;20175;-67
2020/12/23 00:16:07;;;;;;;2.00;1.90;;;13.00;99.90;;;;;;5032205;28;20176;-68
2020/12/23 00:18:32;;;;;;;2.00;1.80;;;13.00;99.90;;;;;;5031877;28;20186;-67
2020/12/23 00:20:58;;;;;;;2.33;1.53;;;13.00;99.90;;;;;;5031935;28;20184;-67
2020/12/23 00:23:24;;;;;;;2.70;1.60;;;13.00;99.90;;;;;;5031914;28;20188;-68
2020/12/23 00:25:49;;;;;;;2.30;1.60;;;13.00;99.90;;;;;;5031947;28;20656;-68
2020/12/23 00:28:15;;;;;;;3.20;1.90;;;13.10;99.90;;;;;;5031987;28;20168;-66
2020/12/23 00:30:41;;;;;;;2.30;1.40;;;13.10;99.90;;;;;;5031945;28;20168;-67
2020/12/23 00:33:07;;;;;;;2.03;1.60;;;13.00;99.90;;;;;;5031864;28;20225;-68
2020/12/23 00:35:32;;;;;;;2.70;1.80;;;13.10;99.90;;;;;;5030786;28;20175;-68
2020/12/23 00:37:58;;;;;;;3.67;1.97;;;13.00;99.90;;;;;;5031688;28;20195;-66
2020/12/23 00:40:23;;;;;;;3.43;1.73;;;13.10;99.90;;;;;;5031636;28;20190;-67
2020/12/23 00:42:49;;;;;;;1.80;1.50;;;13.20;99.90;;;;;;5013864;28;20207;-66
2020/12/23 00:45:14;;;;;;;2.40;1.60;;;13.10;99.90;;;;;;5031457;28;20250;-67
2020/12/23 00:47:40;;;;;;;2.23;1.27;;;13.10;99.90;;;;;;5010787;28;20176;-68
2020/12/23 00:50:06;;;;;;;2.43;1.30;;;13.20;99.90;;;;;;4996068;28;20219;-68
2020/12/23 00:52:31;;;;;;;2.17;1.20;;;13.20;99.90;;;;;;5011837;28;20621;-67
2020/12/23 00:54:57;;;;;;;2.43;1.30;;;13.10;99.90;;;;;;5011753;28;20176;-68
2020/12/23 00:57:22;;;;;;;4.17;1.63;;;13.10;99.90;;;;;;5011715;28;20183;-66
2020/12/23 00:59:54;;;;;;;2.80;1.47;;;13.10;99.90;;;;;;5011712;28;20256;-66
2020/12/23 01:02:20;;;;;;;2.20;1.17;;;13.10;99.90;;;;;;5011530;28;20615;-66
2020/12/23 01:04:45;;;;;;;1.90;1.40;;;13.10;99.90;;;;;;5011587;28;20195;-68
2020/12/23 01:07:11;;;;;;;3.00;1.30;;;13.10;99.90;;;;;;5011592;28;20264;-69
2020/12/23 01:09:36;;;;;;;3.57;1.63;;;13.10;99.90;;;;;;5011529;28;20176;-68
2020/12/23 01:12:02;;;;;;;1.63;1.20;;;13.10;99.90;;;;;;5011747;28;20173;-69
2020/12/23 01:14:28;;;;;;;2.17;1.63;;;13.00;99.90;;;;;;5011189;28;20180;-67
2020/12/23 01:16:53;;;;;;;1.70;1.47;;;13.00;99.90;;;;;;5011328;28;20184;-67
2020/12/23 01:19:19;;;;;;;1.40;1.30;;;13.00;99.90;;;;;;5011115;28;20188;-67
2020/12/23 01:21:45;;;;;;;2.10;1.40;;;13.00;99.90;;;;;;5011554;28;20238;-68
2020/12/23 01:24:11;;;;;;;4.03;1.53;;;13.00;99.90;;;;;;5011471;28;20698;-68
2020/12/23 01:26:37;;;;;;;2.43;1.50;;;13.00;99.90;;;;;;5028110;28;20658;-67
2020/12/23 01:29:03;;;;;;;1.80;1.20;;;13.00;99.90;;;;;;5013350;28;20180;-67
2020/12/23 01:31:28;;;;;;;2.67;1.40;;;13.00;99.90;;;;;;5030422;28;20171;-68
2020/12/23 01:33:54;;;;;;;3.20;1.53;;;12.90;99.90;;;;;;5030818;28;20180;-67
2020/12/23 01:36:19;;;;;;;2.80;1.70;;;12.90;99.90;;;;;;5030865;28;20183;-68
2020/12/23 01:38:45;;;;;;;2.77;1.70;;;12.80;99.90;;;;;;5030937;28;20258;-66
2020/12/23 01:41:11;;;;;;;2.00;1.50;;;12.90;99.90;;;;;;5030887;28;20606;-66
2020/12/23 01:43:38;;;;;;;1.83;1.43;;;12.90;99.90;;;;;;5030325;28;20258;-68
2020/12/23 01:46:04;;;;;;;3.77;1.67;;;12.90;99.90;;;;;;5030239;28;20612;-69
2020/12/23 01:48:31;;;;;;;3.00;1.70;;;12.90;99.90;;;;;;5030598;28;20183;-66
2020/12/23 01:51:01;;;;;;;2.90;1.60;;;12.90;99.90;;;;;;5014203;28;20231;-68
2020/12/23 01:53:27;;;;;;;3.10;2.10;;;12.80;99.90;;;;;;5011005;28;20181;-67
2020/12/23 01:55:55;;;;;;;2.97;2.10;;;12.80;99.90;;;;;;5010936;28;20267;-67
2020/12/23 01:58:20;;;;;;;2.17;1.90;;;12.90;99.90;;;;;;5011003;28;20259;-67
2020/12/23 02:00:46;;;;;;;2.60;2.10;;;12.90;99.90;;;;;;5010933;28;20320;-67
2020/12/23 02:03:12;;;;;;;2.70;1.97;;;13.00;99.90;;;;;;5010889;28;20650;-67
2020/12/23 02:05:39;;;;;;;5.63;2.07;;;12.90;99.90;;;;;;5011172;28;20222;-69
2020/12/23 02:08:05;;;;;;;2.90;2.20;;;12.90;99.90;;;;;;5010836;28;20180;-69
2020/12/23 02:10:32;;;;;;;3.57;2.47;;;12.80;99.90;;;;;;5010911;28;20191;-68
2020/12/23 02:13:00;;;;;;;4.73;2.47;;;12.80;99.90;;;;;;5010571;28;20239;-68
2020/12/23 02:15:26;;;;;;;2.50;2.30;;;12.80;99.90;;;;;;5010783;28;20180;-67
2020/12/23 02:17:52;;;;;;;6.33;2.20;;;12.80;99.90;;;;;;5010894;28;20185;-68
2020/12/23 02:20:18;;;;;;;3.57;2.30;;;12.70;99.90;;;;;;5010935;28;20251;-68
2020/12/23 02:22:46;;;;;;;4.17;2.20;;;12.70;99.90;;;;;;5010686;28;20192;-67
2020/12/23 02:25:13;;;;;;;4.93;2.27;;;12.80;99.90;;;;;;5010504;28;20287;-67
2020/12/23 02:27:40;;;;;;;3.07;2.13;;;12.80;99.90;;;;;;5010454;28;20181;-66
2020/12/23 02:30:07;;;;;;;1.93;1.73;;;12.80;99.90;;;;;;4993644;28;20184;-66
2020/12/23 02:32:33;;;;;;;2.47;2.20;;;12.70;99.90;;;;;;5010870;28;20184;-68
2020/12/23 02:34:58;;;;;;;2.60;1.90;;;12.70;99.90;;;;;;5010860;28;20177;-68
2020/12/23 02:37:24;;;;;;;2.90;2.10;;;12.70;99.90;;;;;;5010490;28;20259;-67
2020/12/23 02:39:53;;;;;;;2.30;1.80;;;12.70;99.90;;;;;;5010856;28;20239;-68
2020/12/23 02:42:22;;;;;;;2.03;1.80;;;12.70;99.90;;;;;;5010465;28;20569;-67
2020/12/23 02:44:47;;;;;;;4.30;1.87;;;12.70;99.90;;;;;;5010817;28;20278;-68
2020/12/23 02:47:15;;;;;;;1.83;1.60;;;12.70;99.90;;;;;;5010671;28;20730;-67
2020/12/23 02:49:41;;;;;;;3.30;1.90;;;12.70;99.90;;;;;;5019075;28;20922;-66
2020/12/23 02:52:07;;;;;;;2.43;1.93;;;12.70;99.90;;;;;;5030381;28;20597;-66
2020/12/23 02:54:34;;;;;;;2.93;1.60;;;12.70;99.90;;;;;;5030176;28;20180;-68
2020/12/23 02:56:59;;;;;;;4.00;1.50;;;12.70;99.90;;;;;;5009223;28;20581;-69
2020/12/23 02:59:25;;;;;;;2.10;1.90;;;12.70;99.90;;;;;;5013375;28;20259;-66
2020/12/23 03:01:51;;;;;;;2.43;1.70;;;12.70;99.90;;;;;;5014029;28;20180;-68
2020/12/23 03:04:16;;;;;;;3.43;2.10;;;12.70;99.90;;;;;;5014103;28;20266;-68
2020/12/23 03:06:42;;;;;;;3.10;1.77;;;12.70;99.90;;;;;;5013659;28;20204;-67
2020/12/23 03:09:10;;;;;;;4.47;1.90;;;12.70;99.90;;;;;;5012710;28;20184;-67
2020/12/23 03:11:37;;;;;;;2.83;1.70;;;12.70;99.90;;;;;;5013470;28;20185;-66
2020/12/23 03:14:03;;;;;;;4.90;1.83;;;12.70;99.90;;;;;;5026871;28;20172;-67
2020/12/23 03:16:29;;;;;;;4.10;1.87;;;12.70;99.90;;;;;;5033507;28;20270;-67
2020/12/23 03:18:55;;;;;;;3.87;1.60;;;12.70;99.90;;;;;;5033483;28;20661;-68
2020/12/23 03:21:21;;;;;;;2.80;1.50;;;12.70;99.90;;;;;;5033667;28;20199;-68
2020/12/23 03:23:47;;;;;;;4.40;1.60;;;12.70;99.90;;;;;;5033329;28;20179;-68
2020/12/23 03:26:12;;;;;;;2.93;1.77;;;12.70;99.90;;;;;;5033296;28;20202;-67
2020/12/23 03:28:38;;;;;;;3.07;1.40;;;12.70;99.90;;;;;;5033056;28;20222;-67
2020/12/23 03:31:04;;;;;;;2.20;1.57;;;12.80;99.90;;;;;;5033226;28;20200;-67
2020/12/23 03:33:31;;;;;;;1.93;1.43;;;12.70;99.90;;;;;;5024948;28;20164;-67
2020/12/23 03:35:57;;;;;;;4.10;1.50;;;12.80;99.90;;;;;;5033060;28;20262;-66
2020/12/23 03:38:23;;;;;;;1.83;1.30;;;12.80;99.90;;;;;;5033315;28;20176;-68
2020/12/23 03:40:49;;;;;;;4.00;1.20;;;12.80;99.90;;;;;;5020243;28;20238;-66
2020/12/23 03:43:15;;;;;;;3.83;1.33;;;12.80;99.90;;;;;;5013188;28;20187;-69
2020/12/23 03:45:40;;;;;;;3.03;1.37;;;12.80;99.90;;;;;;5013238;28;20238;-66
2020/12/23 03:48:06;;;;;;;3.83;1.40;;;12.80;99.90;;;;;;5013056;28;20176;-67
2020/12/23 03:50:32;;;;;;;1.33;1.20;;;12.70;99.90;;;;;;5014281;28;20239;-67
2020/12/23 03:52:58;;;;;;;1.20;1.10;;;12.80;99.90;;;;;;5012981;28;20527;-68
2020/12/23 03:55:24;;;;;;;2.47;1.20;;;12.70;99.90;;;;;;5013048;28;20200;-67
2020/12/23 03:57:50;;;;;;;2.80;0.93;;;12.80;99.90;;;;;;5012810;28;20695;-68
2020/12/23 04:00:15;;;;;;;4.30;1.10;;;12.80;99.90;;;;;;5012720;28;20177;-67
2020/12/23 04:02:41;;;;;;;1.03;0.90;;;12.80;99.90;;;;;;5012970;28;20184;-67
2020/12/23 04:05:07;;;;;;;1.17;0.90;;;12.70;99.90;;;;;;4993728;28;20228;-68
2020/12/23 04:07:33;;;;;;;1.30;0.70;;;12.70;99.90;;;;;;5012722;28;20264;-68
2020/12/23 04:09:59;;;;;;;1.13;0.80;;;12.60;99.90;;;;;;5012375;28;20200;-67
2020/12/23 04:12:25;;;;;;;1.33;0.70;;;12.60;99.90;;;;;;5012680;28;20179;-68
2020/12/23 04:14:51;;;;;;;1.70;0.70;;;12.60;99.90;;;;;;5012663;28;20239;-68
2020/12/23 04:17:16;;;;;;;1.47;0.60;;;12.70;99.90;;;;;;5012441;28;20184;-66
2020/12/23 04:19:42;;;;;;;1.50;0.67;;;12.70;99.90;;;;;;5012550;28;20184;-67
2020/12/23 04:22:08;;;;;;;1.00;0.40;;;12.70;99.90;;;;;;5012322;28;20183;-67
2020/12/23 04:24:33;;;;;;;0.53;0.40;;;12.60;99.90;;;;;;5012120;28;20173;-67
2020/12/23 04:26:59;;;;;;;3.60;0.60;;;12.60;99.90;;;;;;5012232;28;20203;-66
2020/12/23 04:29:25;;;;;;;1.70;0.63;;;12.70;99.90;;;;;;5012485;28;20176;-67
2020/12/23 04:31:51;;;;;;;1.33;0.60;;;12.60;99.90;;;;;;5012399;28;20264;-67
2020/12/23 04:34:16;;;;;;;0.33;0.30;;;12.60;99.90;;;;;;5012349;28;20690;-67
2020/12/23 04:36:42;;;;;;;0.50;0.30;;;12.70;99.90;;;;;;5012308;28;20202;-68
2020/12/23 04:39:08;;;;;;;0.50;0.40;;;12.70;99.90;;;;;;5012075;28;20180;-66
2020/12/23 04:41:34;;;;;;;0.30;0.30;;;12.70;99.90;;;;;;5012025;28;20186;-68
2020/12/23 04:44:05;;;;;;;0.57;0.40;;;12.70;99.90;;;;;;5012079;28;20192;-68
2020/12/23 04:46:41;;;;;;;1.57;0.50;;;12.70;99.90;;;;;;5012033;28;20725;-67
2020/12/23 04:49:08;;;;;;;0.23;0.23;;;12.70;99.90;;;;;;4994274;28;20172;-67
2020/12/23 04:51:39;;;;;;;0.87;0.50;;;12.70;99.90;;;;;;5011939;28;20548;-67
2020/12/23 04:54:07;;;;;;;4.10;0.60;;;12.60;99.90;;;;;;5029338;28;20175;-66
2020/12/23 04:56:34;;;;;;;2.57;0.50;;;12.60;99.90;;;;;;5031653;28;20214;-68
2020/12/23 04:59:01;;;;;;;0.40;0.40;;;12.60;99.90;;;;;;5031246;28;20198;-67
2020/12/23 05:01:27;;;;;;;1.03;0.50;;;12.60;99.90;;;;;;5018710;28;20594;-67
2020/12/23 05:03:54;;;;;;;0.90;0.50;;;12.60;99.90;;;;;;4999261;28;20176;-67
2020/12/23 05:06:21;;;;;;;2.17;0.70;;;12.70;99.90;;;;;;5011719;28;20192;-67
2020/12/23 05:08:48;;;;;;;0.70;0.70;;;12.70;99.90;;;;;;5015776;28;20186;-68
2020/12/23 05:11:13;;;;;;;0.70;0.60;;;12.70;99.90;;;;;;5010581;28;20172;-66
2020/12/23 05:13:40;;;;;;;1.43;0.60;;;12.70;99.90;;;;;;5011621;28;20181;-66
2020/12/23 05:16:08;;;;;;;1.17;0.73;;;12.70;99.90;;;;;;5011681;28;20255;-67
2020/12/23 05:18:44;;;;;;;1.13;0.80;;;12.60;99.90;;;;;;5027070;28;20640;-68
2020/12/23 05:21:16;;;;;;;1.50;0.93;;;12.70;99.90;;;;;;5024629;28;20513;-67
2020/12/23 05:23:45;;;;;;;1.00;0.90;;;12.70;99.90;;;;;;5011512;28;20173;-68
2020/12/23 05:26:13;;;;;;;3.03;0.77;;;12.60;99.90;;;;;;5011060;28;20208;-67
2020/12/23 05:28:41;;;;;;;1.43;0.90;;;12.60;99.90;;;;;;5011504;28;20188;-68
2020/12/23 05:31:10;;;;;;;1.17;0.63;;;12.50;99.90;;;;;;5019983;28;20175;-68
2020/12/23 05:33:37;;;;;;;1.93;1.00;;;12.50;99.90;;;;;;5030931;28;20176;-68
2020/12/23 05:36:07;;;;;;;2.60;1.20;;;12.50;99.90;;;;;;5030952;28;20218;-67
2020/12/23 05:38:34;;;;;;;2.57;1.00;;;12.40;99.90;;;;;;5010236;28;20280;-67
2020/12/23 05:41:02;;;;;;;3.70;1.23;;;12.40;99.90;;;;;;5011366;28;20200;-66
2020/12/23 05:43:28;;;;;;;3.63;1.40;;;12.40;99.90;;;;;;5011254;28;20230;-67
2020/12/23 05:45:58;;;;;;;2.87;1.50;;;12.30;99.90;;;;;;5027499;28;20203;-68
2020/12/23 05:48:24;;;;;;;3.57;2.10;;;12.30;99.90;;;;;;5030580;28;20207;-67
2020/12/23 05:50:49;;;;;;;2.77;1.90;;;12.30;99.90;;;;;;5019336;28;20246;-67
2020/12/23 05:53:16;;;;;;;1.50;1.40;;;12.30;99.90;;;;;;5001820;28;20252;-67
2020/12/23 05:55:50;;;;;;;1.20;1.10;;;12.30;99.90;;;;;;4991290;28;20173;-67
2020/12/23 05:58:30;;;;;;;1.60;1.50;;;12.40;99.90;;;;;;4991262;28;20173;-68
2020/12/23 06:00:59;;;;;;;3.50;1.40;;;12.50;99.90;;;;;;4991527;28;20183;-68
2020/12/23 06:03:57;;;;;;;2.57;1.70;;;12.50;99.90;;;;;;4991270;28;20181;-67
2020/12/23 06:06:25;;;;;;;4.13;1.97;;;12.60;99.90;;;;;;4991213;28;20259;-67
2020/12/23 06:09:03;;;;;;;2.83;2.57;;;12.60;99.90;;;;;;4995568;28;20172;-67
2020/12/23 06:11:37;;;;;;;3.07;2.77;;;12.60;99.90;;;;;;5011036;28;20183;-67
2020/12/23 06:14:02;;;;;;;3.00;2.80;;;12.60;99.90;;;;;;5002880;28;20184;-67
2020/12/23 06:16:46;;;;;;;3.60;3.20;;;12.50;99.90;;;;;;4991347;28;20595;-66
2020/12/23 06:19:27;;;;;;;3.83;3.43;;;12.50;99.90;;;;;;4991360;28;20640;-66
2020/12/23 06:21:55;;;;;;;3.67;3.37;;;12.50;99.90;;;;;;4991241;28;20259;-66
2020/12/23 06:24:22;;;;;;;3.90;3.30;;;12.40;99.90;;;;;;5002276;28;20180;-65
2020/12/23 06:26:50;;;;;;;3.67;3.37;;;12.50;99.90;;;;;;5002448;28;20283;-66
2020/12/23 06:29:25;;;;;;;4.10;2.70;;;12.50;99.90;;;;;;5010795;28;20255;-65
2020/12/23 06:32:02;;;;;;;3.40;2.47;;;12.50;99.90;;;;;;5011318;28;20190;-66
2020/12/23 06:34:29;;;;;;;3.03;2.53;;;12.50;99.90;;;;;;5014609;28;20172;-66
2020/12/23 06:36:56;;;;;;;2.77;2.10;;;12.50;99.90;;;;;;5014312;28;20589;-67
2020/12/23 06:39:26;;;;;;;2.20;1.97;;;12.50;99.90;;;;;;5014389;28;20176;-68
2020/12/23 06:42:15;;;;;;;2.10;1.90;;;12.50;99.90;;;;;;5014156;28;20669;-67
2020/12/23 06:44:50;;;;;;;3.50;1.90;;;12.50;99.90;;;;;;5014100;28;20228;-68
2020/12/23 06:47:15;;;;;;;2.87;2.10;;;12.50;99.90;;;;;;5014156;28;20207;-67
2020/12/23 06:49:48;;;;;;;2.90;2.00;;;12.50;99.90;;;;;;5015732;28;20670;-67
2020/12/23 06:52:27;;;;;;;2.70;2.10;;;12.50;99.90;;;;;;5012333;28;20204;-69
2020/12/23 06:55:03;;;;;;;1.97;1.83;;;12.40;99.90;;;;;;5014312;28;20176;-69
2020/12/23 06:57:37;;;;;;;2.87;1.47;;;12.50;99.90;;;;;;5014285;28;20196;-67
2020/12/23 07:00:06;;;;;;;1.60;1.50;;;12.50;99.90;;;;;;5010273;28;20177;-67
2020/12/23 07:02:33;;;;;;;1.50;1.40;;;12.40;99.90;;;;;;4994775;28;20236;-70
2020/12/23 07:04:59;;;;;;;3.00;1.57;;;12.40;99.90;;;;;;4994157;28;20181;-67
2020/12/23 07:07:42;;;;;;;2.43;1.77;;;12.40;99.90;;;;;;4994408;28;20190;-67
2020/12/23 07:10:16;;;;;;;1.50;1.40;;;12.40;99.90;;;;;;4994310;28;20209;-68
2020/12/23 07:12:48;;;;;;;1.47;1.33;;;12.40;99.90;;;;;;4994410;28;20240;-67
2020/12/23 07:15:18;;;;;;;2.00;1.50;;;12.40;99.90;;;;;;4994439;28;20185;-69
2020/12/23 07:17:45;;;;;;;1.50;1.40;;;12.30;99.90;;;;;;4994159;28;20185;-68
2020/12/23 07:20:13;;;;;;;1.50;1.30;;;12.30;99.90;;;;;;4976420;28;20185;-68
2020/12/23 07:22:39;;;;;;;2.70;1.70;;;12.30;99.90;;;;;;4993591;28;20187;-67
2020/12/23 07:25:06;;;;;;;3.17;1.80;;;12.30;99.90;;;;;;4976882;28;20185;-68
2020/12/23 07:27:33;;;;;;;1.50;1.40;;;12.20;99.90;;;;;;4993948;28;20186;-68
2020/12/23 07:30:08;;;;;;;4.97;1.77;;;12.30;99.90;;;;;;4994462;28;20620;-67
2020/12/23 07:32:35;;;;;;;1.40;1.30;;;12.20;99.90;;;;;;4993918;28;20216;-67
2020/12/23 07:35:03;;;;;;;5.37;1.40;;;12.20;99.90;;;;;;4993965;28;20181;-67
2020/12/23 07:37:37;;;;;;;1.60;1.50;;;12.20;99.90;;;;;;4993609;28;20185;-68
2020/12/23 07:40:14;;;;;;;4.50;1.60;;;12.20;99.90;;;;;;4994075;28;20631;-68
2020/12/23 07:42:46;;;;;;;1.87;1.77;;;12.20;99.90;;;;;;4993476;28;20184;-65
2020/12/23 07:45:12;;;;;;;2.93;1.73;;;12.20;99.90;;;;;;5006971;28;20203;-65
2020/12/23 07:47:38;;;;;;;2.30;1.97;;;12.30;99.90;;;;;;5008316;28;20184;-66
2020/12/23 07:50:05;;;;;;;2.40;2.00;;;12.20;99.90;;;;;;5009096;28;20275;-66
2020/12/23 07:52:31;;;;;;;2.40;1.90;;;12.20;99.90;;;;;;5013077;28;20227;-66
2020/12/23 07:55:16;;;;;;;1.90;1.70;;;12.20;99.90;;;;;;5013417;28;20176;-68
2020/12/23 07:57:41;;;;;;;4.27;2.37;;;12.20;99.90;;;;;;5012778;28;20176;-66
2020/12/23 08:00:11;;;;;;;4.37;2.10;;;12.10;99.90;;;;;;5013170;28;20244;-66
2020/12/23 08:02:37;;;;;;;4.60;2.20;;;12.10;99.90;;;;;;5012860;28;20207;-66
2020/12/23 08:05:07;;;;;;;3.57;2.07;;;12.00;99.90;;;;;;5012999;28;20251;-66
2020/12/23 08:07:40;;;;;;;4.93;2.37;;;12.10;99.90;;;;;;5012585;28;20252;-66
2020/12/23 08:10:13;;;;;;;4.93;2.23;;;12.00;99.90;;;;;;5013173;28;20534;-66
2020/12/23 08:12:40;;;;;;;2.80;2.37;;;12.00;99.90;;;;;;5012666;28;20935;-63
2020/12/23 08:15:11;;;;;;;6.07;3.93;;;12.00;99.90;;;;;;5012814;28;20176;-66
2020/12/23 08:17:37;;;;;;;6.87;4.20;;;12.00;99.90;;;;;;5012806;28;20177;-66
2020/12/23 08:20:08;;;;;;;5.47;3.63;;;12.00;99.90;;;;;;5012311;28;20247;-68
2020/12/23 08:22:34;;;;;;;4.20;2.53;;;12.00;99.90;;;;;;5012529;28;20173;-69
2020/12/23 08:25:15;;;;;;;6.20;3.33;;;12.00;99.90;;;;;;5012152;28;20180;-65
2020/12/23 08:27:43;;;;;;;3.73;2.47;;;12.10;99.90;;;;;;5012507;28;20216;-68
2020/12/23 08:30:19;;;;;;;1.97;1.77;;;12.10;99.90;;;;;;5012502;28;20521;-68
2020/12/23 08:32:53;;;;;;;1.60;1.50;;;12.20;99.90;;;;;;5011895;28;20211;-67
2020/12/23 08:35:24;;;;;;;2.77;1.50;;;12.30;99.90;;;;;;5012234;28;20183;-66
2020/12/23 08:37:49;;;;;;;1.63;1.50;;;12.40;99.90;;;;;;5012163;28;20169;-68
2020/12/23 08:40:16;;;;;;;2.87;1.77;;;12.50;99.90;;;;;;5012092;28;20195;-69
2020/12/23 08:42:55;;;;;;;3.33;1.80;;;12.50;99.90;;;;;;5011300;28;20634;-66
2020/12/23 08:45:26;;;;;;;2.40;1.60;;;12.50;99.90;;;;;;5011766;28;20291;-69
2020/12/23 08:47:52;;;;;;;2.27;1.70;;;12.50;99.90;;;;;;5012236;28;20251;-67
2020/12/23 08:50:20;;;;;;;1.87;1.60;;;12.60;99.90;;;;;;5013549;28;20215;-69
2020/12/23 08:52:48;;;;;;;2.80;1.60;;;12.60;99.90;;;;;;5012149;28;20234;-67
2020/12/23 08:55:19;;;;;;;2.97;1.70;;;12.60;99.90;;;;;;5011124;28;20272;-67
2020/12/23 08:57:45;;;;;;;3.43;1.53;;;12.60;99.90;;;;;;5011859;28;20523;-67
2020/12/23 09:00:21;;;;;;;2.30;1.50;;;12.60;99.90;;;;;;5011964;28;20631;-70
2020/12/23 09:02:48;;;;;;;2.00;1.80;;;12.60;99.90;;;;;;5011754;28;20234;-66
2020/12/23 09:05:26;;;;;;;4.43;1.90;;;12.60;99.90;;;;;;5011669;28;20249;-68
2020/12/23 09:08:09;;;;;;;5.63;2.10;;;12.60;99.90;;;;;;5011730;28;20180;-70
2020/12/23 09:10:36;;;;;;;4.13;1.80;;;12.60;99.90;;;;;;5010297;28;20191;-66
2020/12/23 09:13:08;;;;;;;5.10;1.60;;;12.60;99.90;;;;;;5011418;28;20176;-67
2020/12/23 09:15:35;;;;;;;3.03;1.60;;;12.60;99.90;;;;;;5011262;28;20650;-67
2020/12/23 09:18:14;;;;;;;2.60;1.40;;;12.60;99.90;;;;;;5011668;28;20267;-66
2020/12/23 09:20:41;;;;;;;2.20;2.00;;;12.60;99.90;;;;;;5011603;28;20235;-67
2020/12/23 09:23:08;;;;;;;2.10;1.57;;;12.70;99.90;;;;;;5011373;28;20246;-67
2020/12/23 09:25:35;;;;;;;4.17;1.70;;;12.70;99.90;;;;;;5011400;28;20546;-70
2020/12/23 09:28:12;;;;;;;3.93;2.60;;;12.70;99.90;;;;;;5010852;28;20176;-67
2020/12/23 09:30:44;;;;;;;3.87;1.83;;;12.70;99.90;;;;;;5011225;28;20172;-67
2020/12/23 09:33:12;;;;;;;2.00;1.80;;;12.70;99.90;;;;;;5012265;28;20187;-67
2020/12/23 09:35:39;;;;;;;1.87;1.60;;;12.80;99.90;;;;;;5030820;28;20176;-67
2020/12/23 09:38:15;;;;;;;4.33;2.10;;;12.80;99.90;;;;;;5030599;28;20210;-68
2020/12/23 09:40:47;;;;;;;3.97;2.10;;;12.80;99.90;;;;;;5030860;28;20657;-69
2020/12/23 09:43:18;;;;;;;2.30;1.70;;;12.80;99.90;;;;;;5019981;28;20609;-66
2020/12/23 09:45:44;;;;;;;2.60;1.63;;;12.80;99.90;;;;;;5017166;28;20199;-65
2020/12/23 09:48:10;;;;;;;3.47;2.00;;;12.80;99.90;;;;;;5028051;28;20176;-66
2020/12/23 09:50:42;;;;;;;4.83;1.83;;;12.80;99.90;;;;;;5032374;28;20710;-67
2020/12/23 09:53:07;;;;;;;10.20;2.20;;;12.90;99.90;;;;;;5010274;28;20176;-66
2020/12/23 09:55:33;;;;;;;4.47;2.00;;;12.80;99.90;;;;;;5019184;28;20598;-67
2020/12/23 09:57:59;;;;;;;5.40;2.10;;;12.80;99.90;;;;;;5031109;28;20183;-66
2020/12/23 10:00:27;;;;;;;3.10;1.77;;;12.90;99.90;;;;;;5030690;28;20209;-65
2020/12/23 10:02:53;;;;;;;3.40;1.80;;;12.90;99.90;;;;;;5030939;28;20661;-69
2020/12/23 10:05:18;;;;;;;2.20;1.40;;;12.90;99.90;;;;;;5013083;28;20188;-65
2020/12/23 10:07:44;;;;;;;3.13;1.87;;;12.90;99.90;;;;;;5033099;28;20187;-69
2020/12/23 10:10:09;;;;;;;2.50;1.60;;;12.90;99.90;;;;;;5030923;28;20615;-66
2020/12/23 10:12:36;;;;;;;4.67;1.80;;;12.90;99.90;;;;;;5034666;28;20179;-65
2020/12/23 10:15:03;;;;;;;3.13;1.50;;;13.00;99.90;;;;;;5034594;28;20186;-67
2020/12/23 10:17:29;;;;;;;3.10;1.80;;;13.00;99.90;;;;;;5034885;28;20179;-66
2020/12/23 10:19:54;;;;;;;1.97;1.50;;;13.10;99.90;;;;;;5034690;28;20176;-69
2020/12/23 10:22:20;;;;;;;1.73;1.53;;;13.20;99.90;;;;;;5034631;28;20202;-67
2020/12/23 10:24:46;;;;;;;1.97;1.50;;;13.20;99.90;;;;;;5034581;28;20179;-66
2020/12/23 10:27:11;;;;;;;1.80;1.20;;;13.30;99.90;;;;;;5023291;28;20263;-67
2020/12/23 10:29:37;;;;;;;2.00;1.63;;;13.20;99.90;;;;;;5014863;28;20180;-66
2020/12/23 10:32:02;;;;;;;3.63;2.37;;;13.30;99.90;;;;;;5014635;28;20693;-65
2020/12/23 10:34:28;;;;;;;2.43;1.80;;;13.30;99.90;;;;;;5014561;28;20596;-67
2020/12/23 10:36:54;;;;;;;2.53;2.17;;;13.20;99.90;;;;;;5014359;28;20184;-66
2020/12/23 10:39:19;;;;;;;2.83;2.20;;;13.20;99.90;;;;;;5014507;28;20188;-66
2020/12/23 10:41:45;;;;;;;2.57;2.37;;;13.20;99.90;;;;;;5014555;28;20587;-66
2020/12/23 10:44:12;;;;;;;5.30;2.47;;;13.20;99.90;;;;;;5014289;28;20597;-68
2020/12/23 10:46:38;;;;;;;2.80;2.60;;;13.20;99.90;;;;;;5014409;28;20626;-66
2020/12/23 10:49:05;;;;;;;3.00;2.30;;;13.10;99.90;;;;;;5014332;28;20172;-67
2020/12/23 10:51:30;;;;;;;4.30;2.60;;;13.10;99.90;;;;;;5003371;28;20561;-67
2020/12/23 10:53:56;;;;;;;3.23;2.20;;;13.00;99.90;;;;;;5013995;28;20177;-66
2020/12/23 10:56:22;;;;;;;3.07;2.53;;;13.00;99.90;;;;;;5013684;28;20719;-66
2020/12/23 10:58:50;;;;;;;3.37;2.70;;;13.00;99.90;;;;;;5014194;28;20588;-66
2020/12/23 11:01:20;;;;;;;3.53;2.73;;;13.00;99.90;;;;;;5013966;28;20642;-66
2020/12/23 11:03:46;;;;;;;2.93;2.70;;;13.00;99.90;;;;;;5013978;28;20180;-67
2020/12/23 11:06:13;;;;;;;3.00;2.37;;;13.00;99.90;;;;;;5011895;28;20192;-65
2020/12/23 11:08:39;;;;;;;3.87;2.80;;;13.10;99.90;;;;;;5001137;28;20267;-67
2020/12/23 11:11:05;;;;;;;3.07;2.67;;;13.10;99.90;;;;;;4998117;28;20257;-67
2020/12/23 11:13:30;;;;;;;5.40;2.77;;;13.10;99.90;;;;;;4994302;28;20192;-69
2020/12/23 11:15:56;;;;;;;2.97;2.67;;;13.10;99.90;;;;;;4996234;28;20209;-67
2020/12/23 11:18:28;;;;;;;4.57;2.60;;;13.10;99.90;;;;;;5010324;28;20184;-67
2020/12/23 11:20:54;;;;;;;5.40;3.60;;;13.10;99.90;;;;;;4990593;28;20203;-65
2020/12/23 11:23:24;;;;;;;3.77;3.17;;;13.20;99.90;;;;;;4998584;28;20258;-65
2020/12/23 11:25:50;;;;;;;5.83;3.47;;;13.10;99.90;;;;;;5010547;28;20550;-66
2020/12/23 11:28:15;;;;;;;5.67;3.00;;;13.10;99.90;;;;;;5009475;28;20171;-68
2020/12/23 11:30:41;;;;;;;5.90;2.97;;;13.10;99.90;;;;;;5013345;28;20168;-64
2020/12/23 11:33:06;;;;;;;6.90;3.20;;;13.10;99.90;;;;;;5003564;28;20534;-66
2020/12/23 11:35:32;;;;;;;3.13;2.83;;;13.10;99.90;;;;;;5001694;28;20180;-65
2020/12/23 11:37:58;;;;;;;3.93;2.87;;;13.20;99.90;;;;;;4999514;28;20188;-63
2020/12/23 11:40:23;;;;;;;3.20;2.90;;;13.20;99.90;;;;;;4994247;28;20222;-61
2020/12/23 11:42:49;;;;;;;6.97;3.70;;;13.20;99.90;;;;;;4999897;28;20181;-62
2020/12/23 11:45:14;;;;;;;3.97;2.97;;;13.30;99.90;;;;;;4993751;28;20173;-61
2020/12/23 11:47:40;;;;;;;6.03;2.70;;;13.20;99.90;;;;;;4998686;28;20180;-62
2020/12/23 11:50:05;;;;;;;2.63;2.43;;;13.30;99.90;;;;;;5016253;28;20550;-62
2020/12/23 11:52:31;;;;;;;3.70;2.73;;;13.30;99.90;;;;;;5033014;28;20243;-61
2020/12/23 11:54:57;;;;;;;5.20;2.30;;;13.30;99.90;;;;;;5032545;28;20204;-62
2020/12/23 11:57:22;;;;;;;2.47;1.97;;;13.30;99.90;;;;;;5032645;28;20175;-61
2020/12/23 11:59:48;;;;;;;3.73;2.53;;;13.20;99.90;;;;;;5033194;28;20238;-64
2020/12/23 12:02:14;;;;;;;2.87;2.10;;;13.30;99.90;;;;;;5032609;28;20271;-64
2020/12/23 12:04:39;;;;;;;4.13;2.10;;;13.30;99.90;;;;;;5031488;28;20180;-64
2020/12/23 12:07:05;;;;;;;2.50;2.00;;;13.30;99.90;;;;;;5032429;28;20227;-63
2020/12/23 12:09:31;;;;;;;2.30;2.10;;;13.30;99.90;;;;;;5021432;28;20175;-65
2020/12/23 12:11:57;;;;;;;5.17;2.33;;;13.30;99.90;;;;;;5032596;28;20206;-66
2020/12/23 12:14:24;;;;;;;2.30;2.10;;;13.20;99.90;;;;;;5032478;28;20203;-69
2020/12/23 12:16:50;;;;;;;3.87;2.50;;;13.20;99.90;;;;;;5032465;28;20172;-72
2020/12/23 12:19:15;;;;;;;3.30;1.63;;;13.30;99.90;;;;;;5014209;28;20660;-68
2020/12/23 12:21:41;;;;;;;2.37;1.90;;;13.30;99.90;;;;;;5032329;28;20179;-70
2020/12/23 12:24:07;;;;;;;4.40;2.00;;;13.30;99.90;;;;;;5031236;28;20171;-71
2020/12/23 12:26:33;;;;;;;5.93;2.67;;;13.20;99.90;;;;;;5032003;28;20665;-69
2020/12/23 12:28:59;;;;;;;6.53;2.20;;;13.20;99.90;;;;;;5032167;28;20204;-70
2020/12/23 12:31:26;;;;;;;2.67;2.20;;;13.20;99.90;;;;;;5031992;28;20184;-69
2020/12/23 12:33:51;;;;;;;2.93;2.40;;;13.20;99.90;;;;;;5032239;28;20519;-70
2020/12/23 12:36:17;;;;;;;2.93;2.30;;;13.30;99.90;;;;;;5031990;28;20184;-69
2020/12/23 12:38:43;;;;;;;2.50;2.30;;;13.20;99.90;;;;;;5031878;28;20179;-71
2020/12/23 12:41:08;;;;;;;3.60;2.10;;;13.20;99.90;;;;;;5032083;28;20258;-73
2020/12/23 12:43:34;;;;;;;2.63;2.17;;;13.20;99.90;;;;;;5032151;28;20176;-69
2020/12/23 12:46:00;;;;;;;2.73;2.03;;;13.20;99.90;;;;;;5032457;28;20195;-70
2020/12/23 12:48:25;;;;;;;2.63;2.30;;;13.20;99.90;;;;;;5032513;28;20448;-70
2020/12/23 12:50:51;;;;;;;3.40;2.40;;;13.20;99.90;;;;;;5020311;28;20216;-70